createdAt,value
2018-11-11T00:00:25.724Z,99.90
2018-11-11T00:02:55.435Z,99.90
2018-11-11T00:05:25.017Z,99.90
2018-11-11T00:07:54.252Z,99.90
2018-11-11T00:10:29.061Z,99.90
2018-11-11T00:12:58.580Z,99.90
2018-11-11T00:15:28.060Z,99.90
2018-11-11T00:17:57.536Z,99.90
2018-11-11T00:20:27.112Z,99.90
2018-11-11T00:25:25.689Z,99.90
2018-11-11T00:27:55.268Z,99.90
2018-11-11T00:30:24.736Z,99.90
2018-11-11T00:32:54.272Z,99.90
2018-11-11T00:35:23.769Z,99.90
2018-11-11T00:37:53.273Z,99.90
2018-11-11T00:40:22.804Z,99.90
2018-11-11T00:42:52.320Z,99.90
2018-11-11T00:45:21.828Z,99.90
2018-11-11T00:47:51.424Z,99.90
2018-11-11T00:50:20.941Z,99.90
2018-11-11T00:52:50.478Z,99.90
2018-11-11T00:55:19.992Z,99.90
2018-11-11T00:57:49.507Z,99.90
2018-11-11T01:00:19.420Z,99.90
2018-11-11T01:02:48.892Z,99.90
2018-11-11T01:05:18.400Z,99.90
2018-11-11T01:07:48.792Z,99.90
2018-11-11T01:10:18.296Z,99.90
2018-11-11T01:12:47.822Z,99.90
2018-11-11T01:15:17.751Z,99.90
2018-11-11T01:17:47.255Z,99.90
2018-11-11T01:20:17.881Z,99.90
2018-11-11T01:22:47.605Z,99.90
2018-11-11T01:25:17.992Z,99.90
2018-11-11T01:27:47.464Z,99.90
2018-11-11T01:30:16.987Z,99.90
2018-11-11T01:32:46.456Z,99.90
2018-11-11T01:35:16.856Z,99.90
2018-11-11T01:37:46.488Z,99.90
2018-11-11T01:40:16.083Z,99.90
2018-11-11T01:42:45.560Z,99.90
2018-11-11T01:45:16.545Z,99.90
2018-11-11T01:47:46.632Z,99.90
2018-11-11T01:52:49.143Z,99.90
2018-11-11T01:55:18.476Z,99.90
2018-11-11T01:57:47.948Z,99.90
2018-11-11T02:00:18.392Z,99.90
2018-11-11T02:02:48.792Z,99.90
2018-11-11T02:05:18.288Z,99.90
2018-11-11T02:07:48.650Z,99.90
2018-11-11T02:10:18.142Z,99.90
2018-11-11T02:12:47.645Z,99.90
2018-11-11T02:15:17.925Z,99.90
2018-11-11T02:17:47.396Z,99.90
2018-11-11T02:20:18.952Z,99.90
2018-11-11T02:22:49.471Z,99.90
2018-11-11T02:25:18.980Z,99.90
2018-11-11T02:27:48.484Z,99.90
2018-11-11T02:30:19.268Z,99.90
2018-11-11T02:32:48.813Z,99.90
2018-11-11T02:35:18.320Z,99.90
2018-11-11T02:37:47.869Z,99.90
2018-11-11T02:40:18.576Z,99.90
2018-11-11T02:42:48.985Z,99.90
2018-11-11T02:45:19.617Z,99.90
2018-11-11T02:47:49.152Z,99.90
2018-11-11T02:50:19.444Z,99.90
2018-11-11T02:52:49.155Z,99.90
2018-11-11T02:55:18.764Z,99.90
2018-11-11T02:57:48.575Z,99.90
2018-11-11T03:00:19.440Z,99.90
2018-11-11T03:02:49.736Z,99.90
2018-11-11T03:05:19.812Z,99.90
2018-11-11T03:07:49.339Z,99.90
2018-11-11T03:10:19.176Z,99.90
2018-11-11T03:12:49.639Z,99.90
2018-11-11T03:15:19.565Z,99.90
2018-11-11T03:17:49.055Z,99.90
2018-11-11T03:20:19.080Z,99.90
2018-11-11T03:22:48.604Z,99.90
2018-11-11T03:25:18.481Z,99.90
2018-11-11T03:27:47.976Z,99.90
2018-11-11T03:30:18.144Z,99.90
2018-11-11T03:32:47.698Z,99.90
2018-11-11T03:35:17.217Z,99.90
2018-11-11T03:37:47.060Z,99.90
2018-11-11T03:40:18.476Z,99.90
2018-11-11T03:42:48.520Z,99.90
2018-11-11T03:45:19.217Z,99.90
2018-11-11T03:47:49.896Z,99.90
2018-11-11T03:50:19.467Z,99.90
2018-11-11T03:52:49.205Z,99.90
2018-11-11T03:55:18.916Z,99.90
2018-11-11T03:57:48.372Z,99.90
2018-11-11T04:00:18.223Z,99.90
2018-11-11T04:02:47.939Z,99.90
2018-11-11T04:05:18.068Z,99.90
2018-11-11T04:07:47.788Z,99.90
2018-11-11T04:10:18.702Z,99.90
2018-11-11T04:12:48.999Z,99.90
2018-11-11T04:15:19.495Z,99.90
2018-11-11T04:17:49.069Z,99.90
2018-11-11T04:20:19.851Z,99.90
2018-11-11T04:22:49.685Z,99.90
2018-11-11T04:25:19.701Z,99.90
2018-11-11T04:27:49.733Z,99.90
2018-11-11T04:30:19.264Z,99.90
2018-11-11T04:32:48.765Z,99.90
2018-11-11T04:35:18.242Z,99.90
2018-11-11T04:37:49.327Z,99.90
2018-11-11T04:40:18.812Z,99.90
2018-11-11T04:45:17.303Z,99.90
2018-11-11T04:47:47.243Z,99.90
2018-11-11T04:50:17.757Z,99.90
2018-11-11T04:52:47.784Z,99.90
2018-11-11T04:55:17.275Z,99.90
2018-11-11T04:57:46.764Z,99.90
2018-11-11T05:00:16.277Z,99.90
2018-11-11T05:07:44.500Z,99.90
2018-11-11T05:10:14.240Z,99.90
2018-11-11T05:12:43.768Z,99.90
2018-11-11T05:15:14.076Z,99.90
2018-11-11T05:17:43.809Z,99.90
2018-11-11T05:20:13.882Z,99.90
2018-11-11T05:22:43.936Z,99.90
2018-11-11T05:25:14.528Z,99.90
2018-11-11T05:27:44.755Z,99.90
2018-11-11T05:30:14.988Z,99.90
2018-11-11T05:32:44.480Z,99.90
2018-11-11T05:35:14.000Z,99.90
2018-11-11T05:37:43.820Z,99.90
2018-11-11T05:40:14.155Z,99.90
2018-11-11T05:42:44.297Z,99.90
2018-11-11T05:45:14.808Z,99.90
2018-11-11T05:47:44.467Z,99.90
2018-11-11T05:50:15.200Z,99.90
2018-11-11T05:52:45.759Z,99.90
2018-11-11T05:55:15.296Z,99.90
2018-11-11T05:57:44.828Z,99.90
2018-11-11T06:00:15.740Z,99.90
2018-11-11T06:02:45.645Z,99.90
2018-11-11T06:05:16.080Z,99.90
2018-11-11T06:07:45.557Z,99.90
2018-11-11T06:10:15.604Z,99.90
2018-11-11T06:12:45.144Z,99.90
2018-11-11T06:15:15.180Z,99.90
2018-11-11T06:17:44.751Z,99.90
2018-11-11T06:20:16.700Z,99.90
2018-11-11T06:22:46.199Z,99.90
2018-11-11T06:25:15.669Z,99.90
2018-11-11T06:27:45.224Z,99.90
2018-11-11T06:30:14.703Z,99.90
2018-11-11T06:37:42.423Z,99.90
2018-11-11T06:40:12.943Z,99.90
2018-11-11T06:42:42.764Z,99.90
2018-11-11T06:45:14.544Z,99.90
2018-11-11T06:47:44.644Z,99.90
2018-11-11T06:50:15.069Z,99.90
2018-11-11T06:52:45.407Z,99.90
2018-11-11T07:01:49.199Z,99.90
2018-11-11T07:04:18.812Z,99.90
2018-11-11T07:09:17.348Z,99.90
2018-11-11T07:11:46.845Z,99.90
2018-11-11T07:14:16.321Z,99.90
2018-11-11T07:16:45.800Z,99.90
2018-11-11T07:19:15.368Z,99.90
2018-11-11T07:21:44.858Z,99.90
2018-11-11T07:26:43.949Z,99.90
2018-11-11T07:29:13.440Z,99.90
2018-11-11T07:31:42.998Z,99.90
2018-11-11T07:34:12.469Z,99.90
2018-11-11T07:36:41.980Z,99.90
2018-11-11T07:39:13.260Z,99.90
2018-11-11T07:41:42.949Z,99.90
2018-11-11T07:44:12.600Z,99.90
2018-11-11T07:46:42.111Z,99.90
2018-11-11T07:49:12.217Z,99.90
2018-11-11T07:51:41.732Z,99.90
2018-11-11T07:54:11.388Z,99.90
2018-11-11T07:56:40.893Z,99.90
2018-11-11T07:59:10.417Z,99.90
2018-11-11T08:01:39.936Z,99.90
2018-11-11T08:04:09.596Z,99.90
2018-11-11T08:06:39.107Z,99.90
2018-11-11T08:09:08.647Z,99.90
2018-11-11T08:12:03.651Z,99.90
2018-11-11T08:14:33.215Z,99.90
2018-11-11T08:19:32.096Z,99.90
2018-11-11T08:22:01.615Z,99.90
2018-11-11T08:24:31.115Z,99.90
2018-11-11T08:27:00.660Z,99.70
2018-11-11T08:29:30.208Z,99.50
2018-11-11T08:31:59.762Z,98.90
2018-11-11T08:34:29.440Z,97.80
2018-11-11T08:36:59.064Z,98.10
2018-11-11T08:39:28.572Z,95.30
2018-11-11T08:41:58.070Z,92.50
2018-11-11T08:46:56.824Z,87.70
2018-11-11T08:49:26.334Z,85.50
2018-11-11T08:51:55.900Z,81.90
2018-11-11T08:54:26.131Z,79.80
2018-11-11T08:56:55.712Z,82.50
2018-11-11T08:59:25.835Z,84.70
2018-11-11T09:01:55.436Z,81.80
2018-11-11T09:04:24.904Z,76.60
2018-11-11T09:06:54.382Z,80.40
2018-11-11T09:09:23.908Z,76.10
2018-11-11T09:14:22.432Z,70.30
2018-11-11T09:16:51.944Z,73.20
2018-11-11T09:19:22.179Z,72.00
2018-11-11T09:21:51.656Z,66.50
2018-11-11T09:24:21.133Z,68.50
2018-11-11T09:26:50.694Z,63.50
2018-11-11T09:29:20.249Z,68.40
2018-11-11T09:31:49.992Z,69.20
2018-11-11T09:34:19.536Z,69.70
2018-11-11T09:36:49.097Z,62.90
2018-11-11T09:39:18.591Z,61.20
2018-11-11T09:41:48.125Z,60.10
2018-11-11T09:44:17.636Z,60.60
2018-11-11T09:46:47.836Z,59.60
2018-11-11T09:49:17.348Z,53.60
2018-11-11T09:51:46.844Z,54.50
2018-11-11T09:54:16.352Z,55.20
2018-11-11T09:56:46.036Z,52.80
2018-11-11T09:59:15.544Z,57.50
2018-11-11T10:01:45.148Z,58.50
2018-11-11T10:04:24.408Z,59.20
2018-11-11T10:07:00.981Z,56.50
2018-11-11T10:09:36.109Z,51.00
2018-11-11T10:12:11.644Z,50.60
2018-11-11T10:14:54.526Z,50.80
2018-11-11T10:17:28.780Z,48.50
2018-11-11T10:20:07.807Z,48.10
2018-11-11T10:22:43.519Z,51.50
2018-11-11T10:25:23.264Z,47.60
2018-11-11T10:28:00.314Z,47.00
2018-11-11T10:30:36.580Z,49.20
2018-11-11T10:33:27.520Z,47.60
2018-11-11T10:36:09.433Z,48.80
2018-11-11T10:38:59.177Z,47.20
2018-11-11T10:41:47.972Z,49.10
2018-11-11T10:44:26.414Z,48.70
2018-11-11T10:46:59.544Z,47.90
2018-11-11T10:49:35.332Z,49.20
2018-11-11T10:52:05.957Z,50.50
2018-11-11T10:54:36.033Z,49.80
2018-11-11T10:57:06.256Z,49.10
2018-11-11T10:59:36.327Z,53.90
2018-11-11T11:02:12.076Z,56.30
2018-11-11T11:04:47.548Z,56.60
2018-11-11T11:07:17.628Z,55.70
2018-11-11T11:09:47.691Z,51.10
2018-11-11T11:12:17.764Z,49.90
2018-11-11T11:14:47.867Z,50.80
2018-11-11T11:17:17.919Z,57.40
2018-11-11T11:19:47.439Z,67.20
2018-11-11T11:22:17.077Z,70.90
2018-11-11T11:24:46.605Z,74.80
2018-11-11T11:27:16.125Z,88.60
2018-11-11T11:29:45.861Z,91.30
2018-11-11T11:32:15.398Z,92.50
2018-11-11T11:34:45.052Z,92.30
2018-11-11T11:37:14.599Z,92.30
2018-11-11T11:39:44.195Z,91.70
2018-11-11T11:42:13.683Z,91.10
2018-11-11T11:44:43.189Z,90.80
2018-11-11T11:47:12.708Z,93.10
2018-11-11T11:49:42.205Z,93.90
2018-11-11T11:52:11.743Z,96.20
2018-11-11T11:54:41.433Z,96.80
2018-11-11T11:57:10.933Z,96.80
2018-11-11T11:59:40.471Z,98.30
2018-11-11T12:02:10.051Z,98.20
2018-11-11T12:04:39.704Z,98.00
2018-11-11T12:07:09.201Z,97.90
2018-11-11T12:09:38.721Z,98.30
2018-11-11T12:12:08.224Z,98.40
2018-11-11T12:14:37.721Z,98.10
2018-11-11T12:17:07.338Z,98.10
2018-11-11T12:19:36.988Z,98.40
2018-11-11T12:24:35.760Z,98.30
2018-11-11T12:27:06.031Z,98.30
2018-11-11T12:29:35.528Z,98.80
2018-11-11T12:32:05.041Z,98.70
2018-11-11T12:34:34.559Z,99.00
2018-11-11T12:37:04.086Z,99.90
2018-11-11T12:39:33.578Z,99.90
2018-11-11T12:42:03.308Z,99.90
2018-11-11T12:44:32.872Z,99.90
2018-11-11T12:47:02.555Z,99.90
2018-11-11T12:49:32.240Z,99.90
2018-11-11T12:52:01.737Z,99.90
2018-11-11T12:54:31.221Z,99.90
2018-11-11T12:57:00.740Z,99.90
2018-11-11T12:59:30.240Z,99.90
2018-11-11T13:01:59.717Z,99.90
2018-11-11T13:04:29.260Z,99.90
2018-11-11T13:06:59.045Z,99.90
2018-11-11T13:09:28.544Z,99.90
2018-11-11T13:11:58.108Z,99.90
2018-11-11T13:14:28.073Z,99.90
2018-11-11T13:19:26.929Z,99.90
2018-11-11T13:21:56.765Z,99.90
2018-11-11T13:24:26.436Z,99.90
2018-11-11T13:26:55.936Z,99.90
2018-11-11T13:29:25.494Z,99.90
2018-11-11T13:31:54.997Z,99.90
2018-11-11T13:34:25.021Z,99.90
2018-11-11T13:36:54.581Z,99.90
2018-11-11T13:39:24.067Z,99.90
2018-11-11T13:41:53.584Z,99.90
2018-11-11T13:44:23.168Z,99.90
2018-11-11T13:46:52.789Z,99.90
2018-11-11T13:49:22.428Z,99.90
2018-11-11T13:51:51.978Z,99.90
2018-11-11T13:54:21.643Z,99.90
2018-11-11T13:56:51.187Z,99.90
2018-11-11T14:01:49.922Z,99.90
2018-11-11T14:04:19.563Z,99.90
2018-11-11T14:06:49.100Z,99.90
2018-11-11T14:09:18.605Z,99.90
2018-11-11T14:11:48.100Z,99.90
2018-11-11T14:14:17.640Z,99.90
2018-11-11T14:16:47.129Z,99.90
2018-11-11T14:19:16.963Z,99.90
2018-11-11T14:21:46.376Z,99.90
2018-11-11T14:24:15.883Z,99.90
2018-11-11T14:26:45.463Z,99.90
2018-11-11T14:29:15.104Z,99.90
2018-11-11T14:31:44.604Z,99.90
2018-11-11T14:34:14.108Z,99.90
2018-11-11T14:36:43.388Z,99.90
2018-11-11T14:39:14.148Z,99.90
2018-11-11T14:41:43.807Z,99.90
2018-11-11T14:44:13.316Z,99.90
2018-11-11T14:46:42.841Z,99.90
2018-11-11T14:49:12.444Z,99.90
2018-11-11T14:51:42.122Z,99.90
2018-11-11T14:54:11.840Z,99.90
2018-11-11T14:56:41.309Z,99.90
2018-11-11T14:59:10.816Z,99.90
2018-11-11T15:01:40.389Z,99.90
2018-11-11T15:04:10.112Z,99.90
2018-11-11T15:06:39.748Z,99.90
2018-11-11T15:09:10.876Z,99.90
2018-11-11T15:11:40.827Z,99.90
2018-11-11T15:14:11.065Z,99.90
2018-11-11T15:16:40.605Z,99.90
2018-11-11T15:19:10.296Z,99.90
2018-11-11T15:21:39.840Z,99.90
2018-11-11T15:24:09.347Z,99.90
2018-11-11T15:26:38.859Z,99.90
2018-11-11T15:29:08.332Z,99.90
2018-11-11T15:31:37.812Z,99.90
2018-11-11T15:34:07.292Z,99.90
2018-11-11T15:36:36.815Z,99.90
2018-11-11T15:39:09.727Z,99.90
2018-11-11T15:41:39.675Z,99.90
2018-11-11T15:44:09.292Z,99.90
2018-11-11T15:46:38.832Z,99.90
2018-11-11T15:49:08.343Z,99.90
2018-11-11T15:51:38.704Z,99.90
2018-11-11T15:54:08.240Z,99.90
2018-11-11T15:56:37.748Z,99.90
2018-11-11T15:59:07.299Z,99.90
2018-11-11T16:01:36.940Z,99.90
2018-11-11T16:04:07.012Z,99.90
2018-11-11T16:06:36.501Z,99.90
2018-11-11T16:09:08.076Z,99.90
2018-11-11T16:11:37.536Z,99.90
2018-11-11T16:14:07.342Z,99.90
2018-11-11T16:16:36.953Z,99.90
2018-11-11T16:19:06.508Z,99.90
2018-11-11T16:21:36.040Z,99.90
2018-11-11T16:24:06.292Z,99.90
2018-11-11T16:26:35.800Z,99.90
2018-11-11T16:29:05.361Z,99.90
2018-11-11T16:31:34.864Z,99.90
2018-11-11T16:34:05.528Z,99.90
2018-11-11T16:36:35.188Z,99.90
2018-11-11T16:39:07.132Z,99.90
2018-11-11T16:41:36.995Z,99.90
2018-11-11T16:44:06.569Z,99.90
2018-11-11T16:46:36.103Z,99.90
2018-11-11T16:49:05.880Z,99.90
2018-11-11T16:51:35.741Z,99.90
2018-11-11T16:54:06.049Z,99.90
2018-11-11T16:56:35.740Z,99.90
2018-11-11T17:04:04.660Z,99.90
2018-11-11T17:06:36.645Z,99.90
2018-11-11T17:09:14.121Z,99.90
2018-11-11T17:11:44.688Z,99.90
2018-11-11T17:14:15.295Z,99.90
2018-11-11T17:16:45.313Z,99.90
2018-11-11T17:19:15.026Z,99.90
2018-11-11T17:21:44.906Z,99.90
2018-11-11T17:24:14.605Z,99.90
2018-11-11T17:26:44.461Z,99.90
2018-11-11T17:29:14.997Z,99.90
2018-11-11T17:31:44.633Z,99.90
2018-11-11T17:34:14.577Z,99.90
2018-11-11T17:36:44.397Z,99.90
2018-11-11T17:39:14.151Z,99.90
2018-11-11T17:41:44.177Z,99.90
2018-11-11T17:46:43.908Z,99.90
2018-11-11T17:49:14.005Z,99.90
2018-11-11T17:51:43.566Z,99.90
2018-11-11T17:54:13.171Z,99.90
2018-11-11T17:56:43.027Z,99.90
2018-11-11T17:59:12.760Z,99.90
2018-11-11T18:01:42.480Z,99.90
2018-11-11T18:04:12.108Z,99.90
2018-11-11T18:06:41.709Z,99.90
2018-11-11T18:11:41.196Z,99.90
2018-11-11T18:14:10.979Z,99.90
2018-11-11T18:16:40.520Z,99.90
2018-11-11T18:19:10.239Z,99.90
2018-11-11T18:21:39.629Z,99.90
2018-11-11T18:24:09.860Z,99.90
2018-11-11T18:26:39.685Z,99.90
2018-11-11T18:31:38.239Z,99.90
2018-11-11T18:34:07.717Z,99.90
2018-11-11T18:36:37.234Z,99.90
2018-11-11T18:39:09.760Z,99.90
2018-11-11T18:41:39.358Z,99.90
2018-11-11T18:44:09.120Z,99.90
2018-11-11T18:46:38.776Z,99.90
2018-11-11T18:49:08.304Z,99.90
2018-11-11T18:54:06.952Z,99.90
2018-11-11T18:56:36.499Z,99.90
2018-11-11T18:59:06.785Z,99.90
2018-11-11T19:01:36.474Z,99.90
2018-11-11T19:04:06.471Z,99.90
2018-11-11T19:06:35.948Z,99.90
2018-11-11T19:09:09.182Z,99.90
2018-11-11T19:11:38.960Z,99.90
2018-11-11T19:14:09.163Z,99.90
2018-11-11T19:16:39.101Z,99.90
2018-11-11T19:19:08.624Z,99.90
2018-11-11T19:21:38.189Z,99.90
2018-11-11T19:24:07.902Z,99.90
2018-11-11T19:26:37.415Z,99.90
2018-11-11T19:29:07.316Z,99.90
2018-11-11T19:31:37.431Z,99.90
2018-11-11T19:34:07.201Z,99.90
2018-11-11T19:36:36.733Z,99.90
2018-11-11T19:39:09.096Z,99.90
2018-11-11T19:41:39.284Z,99.90
2018-11-11T19:44:09.337Z,99.90
2018-11-11T19:46:38.861Z,99.90
2018-11-11T19:49:08.384Z,99.90
2018-11-11T19:51:37.660Z,99.90
2018-11-11T19:54:07.361Z,99.90
2018-11-11T19:56:36.874Z,99.90
2018-11-11T20:01:35.972Z,99.90
2018-11-11T20:04:06.311Z,99.90
2018-11-11T20:06:35.801Z,99.90
2018-11-11T20:09:08.824Z,99.90
2018-11-11T20:11:38.324Z,99.90
2018-11-11T20:14:08.285Z,99.90
2018-11-11T20:16:38.308Z,99.90
2018-11-11T20:19:08.116Z,99.90
2018-11-11T20:24:06.803Z,99.90
2018-11-11T20:26:36.465Z,99.90
2018-11-11T20:29:06.617Z,99.90
2018-11-11T20:31:36.142Z,99.90
2018-11-11T20:34:06.205Z,99.90
2018-11-11T20:36:35.853Z,99.90
2018-11-11T20:39:08.836Z,99.90
2018-11-11T20:41:38.305Z,99.90
2018-11-11T20:44:08.951Z,99.90
2018-11-11T20:46:39.132Z,99.90
2018-11-11T20:49:08.816Z,99.90
2018-11-11T20:51:38.328Z,99.90
2018-11-11T20:54:07.856Z,99.90
2018-11-11T20:56:37.474Z,99.90
2018-11-11T20:59:07.222Z,99.90
2018-11-11T21:01:36.892Z,99.90
2018-11-11T21:04:06.416Z,99.90
2018-11-11T21:06:36.002Z,99.90
2018-11-11T21:09:09.474Z,99.90
2018-11-11T21:11:39.257Z,99.90
2018-11-11T21:14:09.507Z,99.90
2018-11-11T21:16:39.028Z,99.90
2018-11-11T21:19:09.044Z,99.90
2018-11-11T21:21:38.548Z,99.90
2018-11-11T21:24:08.064Z,99.90
2018-11-11T21:26:37.592Z,99.90
2018-11-11T21:29:07.131Z,99.90
2018-11-11T21:34:06.052Z,99.90
2018-11-11T21:36:35.650Z,99.90
2018-11-11T21:39:08.797Z,99.90
2018-11-11T21:41:38.523Z,99.90
2018-11-11T21:44:08.083Z,99.90
2018-11-11T21:46:38.030Z,99.90
2018-11-11T21:49:07.879Z,99.90
2018-11-11T21:51:37.472Z,99.90
2018-11-11T21:54:06.956Z,99.90
2018-11-11T21:59:07.044Z,99.90
2018-11-11T22:04:06.037Z,99.90
2018-11-11T22:06:36.212Z,99.90
2018-11-11T22:09:08.532Z,99.90
2018-11-11T22:11:37.992Z,99.90
2018-11-11T22:16:39.200Z,99.90
2018-11-11T22:21:37.812Z,99.90
2018-11-11T22:24:07.684Z,99.90
2018-11-11T22:26:37.457Z,99.90
2018-11-11T22:29:07.095Z,99.90
2018-11-11T22:31:36.604Z,99.90
2018-11-11T22:34:06.361Z,99.90
2018-11-11T22:36:35.927Z,99.90
2018-11-11T22:39:08.081Z,99.90
2018-11-11T22:41:37.821Z,99.90
2018-11-11T22:44:07.872Z,99.90
2018-11-11T22:46:37.873Z,99.90
2018-11-11T22:49:07.910Z,99.90
2018-11-11T22:51:37.152Z,99.90
2018-11-11T22:54:07.154Z,99.90
2018-11-11T22:56:36.660Z,99.90
2018-11-11T22:59:06.221Z,99.90
2018-11-11T23:01:35.739Z,99.90
2018-11-11T23:04:05.888Z,99.90
2018-11-11T23:06:35.424Z,99.90
2018-11-11T23:09:08.616Z,99.90
2018-11-11T23:11:37.990Z,99.90
2018-11-11T23:14:07.583Z,99.90
2018-11-11T23:16:37.291Z,99.90
2018-11-11T23:19:06.836Z,99.90
2018-11-11T23:21:36.369Z,99.90
2018-11-11T23:24:06.870Z,99.90
2018-11-11T23:26:36.403Z,99.90
2018-11-11T23:29:06.100Z,99.90
2018-11-11T23:31:35.585Z,99.90
2018-11-11T23:34:05.397Z,99.90
2018-11-11T23:36:34.876Z,99.90
2018-11-11T23:39:05.727Z,99.90
2018-11-11T23:41:35.203Z,99.90
2018-11-11T23:44:05.352Z,99.90
2018-11-11T23:46:34.836Z,99.90
2018-11-11T23:49:04.364Z,99.90
2018-11-11T23:54:02.984Z,99.90
2018-11-11T23:56:32.454Z,99.90
2018-11-11T23:59:01.961Z,99.90
